createdAt,value
2018-03-04T00:01:46.181Z,90.68
2018-03-04T00:04:17.908Z,71.97
2018-03-04T00:06:49.230Z,93.75
2018-03-04T00:09:18.454Z,94.43
2018-03-04T00:11:47.615Z,71.83
2018-03-04T00:14:16.964Z,92.10
2018-03-04T00:16:46.152Z,96.18
2018-03-04T00:19:15.368Z,75.57
2018-03-04T00:21:44.539Z,92.35
2018-03-04T00:24:14.851Z,88.77
2018-03-04T00:26:44.737Z,101.15
2018-03-04T00:29:17.859Z,95.25
2018-03-04T00:31:47.359Z,75.67
2018-03-04T00:34:16.933Z,99.65
2018-03-04T00:39:24.304Z,91.70
2018-03-04T00:42:17.013Z,73.53
2018-03-04T00:44:46.516Z,91.68
2018-03-04T00:47:16.663Z,75.10
2018-03-04T00:52:21.576Z,96.80
2018-03-04T00:54:59.291Z,100.25
2018-03-04T00:57:28.457Z,71.30
2018-03-04T00:59:58.655Z,92.12
2018-03-04T01:02:27.841Z,86.43
2018-03-04T01:07:35.187Z,90.32
2018-03-04T01:15:22.001Z,98.53
2018-03-04T01:17:54.607Z,69.90
2018-03-04T01:20:23.823Z,93.53
2018-03-04T01:22:53.087Z,70.03
2018-03-04T01:25:22.251Z,94.22
2018-03-04T01:30:32.588Z,96.80
2018-03-04T01:33:01.747Z,70.50
2018-03-04T01:35:30.934Z,90.18
2018-03-04T01:38:01.079Z,110.13
2018-03-04T01:40:30.252Z,81.83
2018-03-04T01:45:36.080Z,99.50
2018-03-04T01:48:10.995Z,74.97
2018-03-04T01:50:45.125Z,102.32
2018-03-04T01:53:31.784Z,67.90
2018-03-04T01:56:02.971Z,102.43
2018-03-04T01:58:32.267Z,108.30
2018-03-04T02:01:02.371Z,78.93
2018-03-04T02:03:31.590Z,106.15
2018-03-04T02:08:37.907Z,105.45
2018-03-04T02:11:10.037Z,79.70
2018-03-04T02:13:39.349Z,101.90
2018-03-04T02:18:46.669Z,105.53
2018-03-04T02:21:26.708Z,79.47
2018-03-04T02:23:55.873Z,97.97
2018-03-04T02:26:28.174Z,103.35
2018-03-04T02:28:57.398Z,91.93
2018-03-04T02:31:30.831Z,106.25
2018-03-04T02:41:46.739Z,111.22
2018-03-04T02:46:55.626Z,119.00
2018-03-04T02:49:25.800Z,118.32
2018-03-04T02:51:54.977Z,135.15
2018-03-04T02:57:15.179Z,130.02
2018-03-04T02:59:44.400Z,99.87
2018-03-04T03:04:53.158Z,128.20
2018-03-04T03:07:34.419Z,101.17
2018-03-04T03:12:39.246Z,117.93
2018-03-04T03:17:50.458Z,120.45
2018-03-04T03:20:19.647Z,78.60
2018-03-04T03:22:56.959Z,94.37
2018-03-04T03:25:32.042Z,106.20
2018-03-04T03:28:01.209Z,72.63
2018-03-04T03:30:51.899Z,105.05
2018-03-04T03:33:22.005Z,85.90
2018-03-04T03:36:00.901Z,116.55
2018-03-04T03:38:33.823Z,119.55
2018-03-04T03:41:03.002Z,86.63
2018-03-04T03:43:40.777Z,105.55
2018-03-04T03:46:09.965Z,107.43
2018-03-04T03:48:39.123Z,80.13
2018-03-04T03:51:08.327Z,103.78
2018-03-04T03:54:00.669Z,97.72
2018-03-04T03:59:09.623Z,88.97
2018-03-04T04:01:38.760Z,70.00
2018-03-04T04:04:07.976Z,86.37
2018-03-04T04:09:14.319Z,83.22
2018-03-04T04:11:43.546Z,93.73
2018-03-04T04:14:12.700Z,96.55
2018-03-04T04:16:50.275Z,87.07
2018-03-04T04:19:19.476Z,70.60
2018-03-04T04:21:52.072Z,91.57
2018-03-04T04:24:35.558Z,95.55
2018-03-04T04:27:04.723Z,73.57
2018-03-04T04:30:02.012Z,102.47
2018-03-04T04:32:31.214Z,103.47
2018-03-04T04:35:00.384Z,75.90
2018-03-04T04:37:42.028Z,116.97
2018-03-04T04:40:11.194Z,114.20
2018-03-04T04:45:17.561Z,93.85
2018-03-04T04:47:52.219Z,125.00
2018-03-04T04:50:21.431Z,74.67
2018-03-04T04:52:50.622Z,90.28
2018-03-04T04:55:19.778Z,110.53
2018-03-04T04:57:48.948Z,63.90
2018-03-04T05:02:55.246Z,87.37
2018-03-04T05:05:24.411Z,95.90
2018-03-04T05:07:53.591Z,211.90
2018-03-04T05:12:58.011Z,271.23
2018-03-04T05:15:27.179Z,114.93
2018-03-04T05:18:04.695Z,129.18
2018-03-04T05:20:33.882Z,175.30
2018-03-04T05:23:10.300Z,254.27
2018-03-04T05:25:39.464Z,76.57
2018-03-04T05:30:50.175Z,193.90
2018-03-04T05:33:19.368Z,98.67
2018-03-04T05:38:37.091Z,342.80
2018-03-04T05:41:07.295Z,156.27
2018-03-04T05:43:37.420Z,143.50
2018-03-04T05:46:14.714Z,308.85
2018-03-04T05:48:48.295Z,129.10
2018-03-04T05:53:55.693Z,271.77
2018-03-04T05:56:24.830Z,67.70
2018-03-04T05:59:23.109Z,114.45
2018-03-04T06:01:52.280Z,100.90
2018-03-04T06:04:21.488Z,76.57
2018-03-04T06:06:54.498Z,175.10
2018-03-04T06:09:24.586Z,103.90
2018-03-04T06:11:55.716Z,163.40
2018-03-04T06:14:24.888Z,82.33
2018-03-04T06:16:54.231Z,164.82
2018-03-04T06:19:23.440Z,193.90
2018-03-04T06:24:33.543Z,183.50
2018-03-04T06:27:02.743Z,77.60
2018-03-04T06:29:31.904Z,112.72
2018-03-04T06:32:24.386Z,78.93
2018-03-04T06:34:53.602Z,43.70
2018-03-04T06:40:05.319Z,55.55
2018-03-04T06:42:34.475Z,39.23
2018-03-04T06:45:03.680Z,50.97
2018-03-04T06:47:33.741Z,50.08
2018-03-04T06:50:02.952Z,39.27
2018-03-04T06:52:32.179Z,45.75
2018-03-04T06:55:01.408Z,47.42
2018-03-04T06:57:35.336Z,45.93
2018-03-04T07:00:04.615Z,36.10
2018-03-04T07:02:34.723Z,44.22
2018-03-04T07:05:03.934Z,42.42
2018-03-04T07:07:40.463Z,52.38
2018-03-04T07:12:45.927Z,47.08
2018-03-04T07:20:48.815Z,65.37
2018-03-04T07:23:18.205Z,49.03
2018-03-04T07:25:47.380Z,59.53
2018-03-04T07:28:25.768Z,63.72
2018-03-04T07:30:54.936Z,50.53
2018-03-04T07:33:26.643Z,59.05
2018-03-04T07:35:55.841Z,60.12
2018-03-04T07:38:24.976Z,48.90
2018-03-04T07:40:54.184Z,61.35
2018-03-04T07:43:25.503Z,47.57
2018-03-04T07:45:54.707Z,59.53
2018-03-04T07:48:24.845Z,46.90
2018-03-04T07:50:54.029Z,57.60
2018-03-04T07:53:25.432Z,61.72
2018-03-04T07:55:54.602Z,50.00
2018-03-04T07:58:23.820Z,58.22
2018-03-04T08:00:52.982Z,57.90
2018-03-04T08:03:22.233Z,48.03
2018-03-04T08:05:51.363Z,62.70
2018-03-04T08:08:20.527Z,50.37
2018-03-04T08:10:54.222Z,60.12
2018-03-04T08:13:23.432Z,59.45
2018-03-04T08:15:52.575Z,50.60
2018-03-04T08:18:22.736Z,53.75
2018-03-04T08:20:51.909Z,55.97
2018-03-04T08:23:22.040Z,45.40
2018-03-04T08:25:51.212Z,51.47
2018-03-04T08:28:35.561Z,52.70
2018-03-04T08:31:05.886Z,44.97
2018-03-04T08:33:35.053Z,55.60
2018-03-04T08:36:05.167Z,58.25
2018-03-04T08:38:34.344Z,46.60
2018-03-04T08:41:03.527Z,55.75
2018-03-04T08:43:40.359Z,49.13
2018-03-04T08:46:09.580Z,58.30
2018-03-04T08:48:39.192Z,50.33
2018-03-04T08:51:12.712Z,57.97
2018-03-04T08:56:22.854Z,65.20
2018-03-04T08:58:56.924Z,53.73
2018-03-04T09:01:31.199Z,54.10
2018-03-04T09:04:09.596Z,51.97
2018-03-04T09:19:49.038Z,50.65
2018-03-04T09:22:19.352Z,48.20
2018-03-04T09:24:49.651Z,53.80
2018-03-04T09:27:18.817Z,52.30
2018-03-04T09:29:49.999Z,52.22
2018-03-04T09:32:19.173Z,49.33
2018-03-04T09:37:23.560Z,50.20
2018-03-04T09:39:52.809Z,45.77
2018-03-04T09:42:21.977Z,45.67
2018-03-04T09:44:51.156Z,46.73
2018-03-04T09:47:20.332Z,44.80
2018-03-04T09:49:49.536Z,45.10
2018-03-04T09:52:19.620Z,44.27
2018-03-04T09:54:50.882Z,42.40
2018-03-04T09:57:20.043Z,44.80
2018-03-04T09:59:49.240Z,43.17
2018-03-04T10:02:18.407Z,38.00
2018-03-04T10:07:23.903Z,38.20
2018-03-04T10:09:53.115Z,35.13
2018-03-04T10:12:22.317Z,37.70
2018-03-04T10:14:51.492Z,37.67
2018-03-04T10:17:20.660Z,39.27
2018-03-04T10:19:49.834Z,38.10
2018-03-04T10:22:19.011Z,40.85
2018-03-04T10:24:48.218Z,37.47
2018-03-04T10:27:17.384Z,39.63
2018-03-04T10:29:46.532Z,41.92
2018-03-04T10:32:17.695Z,38.47
2018-03-04T10:34:46.849Z,38.40
2018-03-04T10:37:16.082Z,35.60
2018-03-04T10:39:46.148Z,36.73
2018-03-04T10:44:52.698Z,38.47
2018-03-04T10:47:21.899Z,35.93
2018-03-04T10:49:51.093Z,37.47
2018-03-04T10:52:20.304Z,35.13
2018-03-04T10:57:24.739Z,37.50
2018-03-04T11:02:35.831Z,38.17
2018-03-04T11:05:05.128Z,33.50
2018-03-04T11:07:34.320Z,34.10
2018-03-04T11:10:03.640Z,34.77
2018-03-04T11:12:32.798Z,34.60
2018-03-04T11:15:01.972Z,37.58
2018-03-04T11:17:31.200Z,36.20
2018-03-04T11:20:00.340Z,33.33
2018-03-04T11:22:30.057Z,34.50
2018-03-04T11:25:05.201Z,33.37
2018-03-04T11:30:09.645Z,35.67
2018-03-04T11:35:14.154Z,35.30
2018-03-04T11:37:43.398Z,32.20
2018-03-04T11:40:12.573Z,28.73
2018-03-04T11:42:41.760Z,29.60
2018-03-04T11:45:10.915Z,29.80
2018-03-04T11:47:40.084Z,27.60
2018-03-04T11:50:10.157Z,25.10
2018-03-04T11:52:39.315Z,22.63
2018-03-04T11:55:08.484Z,22.27
2018-03-04T11:57:37.717Z,22.60
2018-03-04T12:00:06.887Z,23.27
2018-03-04T12:02:36.108Z,21.67
2018-03-04T12:05:05.330Z,21.10
2018-03-04T12:10:13.433Z,19.67
2018-03-04T12:12:42.621Z,18.00
2018-03-04T12:15:11.786Z,16.00
2018-03-04T12:17:40.963Z,17.27
2018-03-04T12:20:12.120Z,18.90
2018-03-04T12:22:41.304Z,18.00
2018-03-04T12:25:12.128Z,18.97
2018-03-04T12:27:41.322Z,20.07
2018-03-04T12:30:10.519Z,19.63
2018-03-04T12:32:40.763Z,20.33
2018-03-04T12:35:09.963Z,19.13
2018-03-04T12:37:39.170Z,24.45
2018-03-04T12:40:08.620Z,22.07
2018-03-04T12:45:13.147Z,22.02
2018-03-04T12:47:42.459Z,22.73
2018-03-04T12:50:11.678Z,23.33
2018-03-04T12:52:40.823Z,23.33
2018-03-04T12:55:10.040Z,22.17
2018-03-04T12:57:39.268Z,22.37
2018-03-04T13:00:08.443Z,22.63
2018-03-04T13:02:37.664Z,22.10
2018-03-04T13:05:06.827Z,20.63
2018-03-04T13:07:46.303Z,21.00
2018-03-04T13:10:16.051Z,19.97
2018-03-04T13:12:45.272Z,20.10
2018-03-04T13:15:14.471Z,19.37
2018-03-04T13:17:44.538Z,19.53
2018-03-04T13:20:13.739Z,20.47
2018-03-04T13:22:42.895Z,20.05
2018-03-04T13:25:12.128Z,19.58
2018-03-04T13:27:41.310Z,18.20
2018-03-04T13:30:14.081Z,17.60
2018-03-04T13:32:43.283Z,19.00
2018-03-04T13:35:12.465Z,19.33
2018-03-04T13:37:41.624Z,20.63
2018-03-04T13:40:10.795Z,21.30
2018-03-04T13:42:39.957Z,21.07
2018-03-04T13:45:09.106Z,18.80
2018-03-04T13:47:38.512Z,18.43
2018-03-04T13:50:07.800Z,20.42
2018-03-04T13:52:37.010Z,20.08
2018-03-04T13:55:06.262Z,18.60
2018-03-04T13:57:35.411Z,17.60
2018-03-04T14:02:43.307Z,18.75
2018-03-04T14:07:47.805Z,18.45
2018-03-04T14:10:17.011Z,18.92
2018-03-04T14:12:46.175Z,16.87
2018-03-04T14:15:15.991Z,18.43
2018-03-04T14:17:45.144Z,16.73
2018-03-04T14:20:14.433Z,16.37
2018-03-04T14:22:43.626Z,16.50
2018-03-04T14:25:13.745Z,16.40
2018-03-04T14:27:42.910Z,15.07
2018-03-04T14:30:12.105Z,14.27
2018-03-04T14:32:45.599Z,13.33
2018-03-04T14:35:15.117Z,12.57
2018-03-04T14:37:44.343Z,12.33
2018-03-04T14:42:48.818Z,13.75
2018-03-04T14:45:18.575Z,13.23
2018-03-04T14:47:48.008Z,13.47
2018-03-04T14:50:17.371Z,13.40
2018-03-04T14:52:47.426Z,13.17
2018-03-04T14:55:16.713Z,14.48
2018-03-04T14:57:46.114Z,13.20
2018-03-04T15:00:15.562Z,13.63
2018-03-04T15:02:44.787Z,14.20
2018-03-04T15:05:15.244Z,13.93
2018-03-04T15:07:44.657Z,15.07
2018-03-04T15:10:14.282Z,14.97
2018-03-04T15:12:43.504Z,15.67
2018-03-04T15:15:12.666Z,15.27
2018-03-04T15:17:41.823Z,15.40
2018-03-04T15:22:46.484Z,15.50
2018-03-04T15:25:15.967Z,16.27
2018-03-04T15:27:45.299Z,16.92
2018-03-04T15:30:15.679Z,16.83
2018-03-04T15:32:45.172Z,15.93
2018-03-04T15:35:14.749Z,16.80
2018-03-04T15:37:44.887Z,17.30
2018-03-04T15:40:14.324Z,16.47
2018-03-04T15:42:43.517Z,17.67
2018-03-04T15:45:12.793Z,15.90
2018-03-04T15:47:42.883Z,17.43
2018-03-04T15:50:12.126Z,18.30
2018-03-04T15:52:41.284Z,16.73
2018-03-04T15:55:11.432Z,17.58
2018-03-04T15:57:40.663Z,15.90
2018-03-04T16:00:09.952Z,15.60
2018-03-04T16:02:39.132Z,17.98
2018-03-04T16:05:08.342Z,15.65
2018-03-04T16:07:37.544Z,17.87
2018-03-04T16:10:06.799Z,15.33
2018-03-04T16:12:35.968Z,14.23
2018-03-04T16:15:05.176Z,15.07
2018-03-04T16:17:34.387Z,16.30
2018-03-04T16:20:13.501Z,17.75
2018-03-04T16:22:42.656Z,15.73
2018-03-04T16:25:11.924Z,13.83
2018-03-04T16:27:41.183Z,13.47
2018-03-04T16:30:10.477Z,13.70
2018-03-04T16:32:39.685Z,12.67
2018-03-04T16:35:09.157Z,15.20
2018-03-04T16:37:38.371Z,16.20
2018-03-04T16:40:07.720Z,20.00
2018-03-04T16:42:36.981Z,22.05
2018-03-04T16:47:41.567Z,22.40
2018-03-04T16:50:12.605Z,19.63
2018-03-04T16:52:41.973Z,22.07
2018-03-04T16:55:16.517Z,24.30
2018-03-04T16:57:50.109Z,21.07
2018-03-04T17:00:19.323Z,21.67
2018-03-04T17:02:52.071Z,25.42
2018-03-04T17:05:21.294Z,22.20
2018-03-04T17:07:51.428Z,20.63
2018-03-04T17:10:20.835Z,20.40
2018-03-04T17:13:07.759Z,21.47
2018-03-04T17:15:37.105Z,19.80
2018-03-04T17:20:55.584Z,23.10
2018-03-04T17:23:35.731Z,21.27
2018-03-04T17:28:43.175Z,24.35
2018-03-04T17:31:14.585Z,18.57
2018-03-04T17:36:18.988Z,23.90
2018-03-04T17:41:24.355Z,26.80
2018-03-04T17:46:28.871Z,25.60
2018-03-04T17:49:08.940Z,22.83
2018-03-04T17:51:59.781Z,19.67
2018-03-04T17:57:12.311Z,22.90
2018-03-04T17:59:56.943Z,22.62
2018-03-04T18:02:26.303Z,19.80
2018-03-04T18:07:34.760Z,23.20
2018-03-04T18:12:50.925Z,24.23
2018-03-04T18:15:21.165Z,22.40
2018-03-04T18:20:25.706Z,27.45
2018-03-04T18:22:55.748Z,22.70
2018-03-04T18:25:25.278Z,23.60
2018-03-04T18:27:54.491Z,23.47
2018-03-04T18:30:23.703Z,23.40
2018-03-04T18:32:52.970Z,27.27
2018-03-04T18:35:22.733Z,24.60
2018-03-04T18:37:51.904Z,24.43
2018-03-04T18:40:22.045Z,24.97
2018-03-04T18:42:52.243Z,25.80
2018-03-04T18:45:22.366Z,32.00
2018-03-04T18:47:51.585Z,26.07
2018-03-04T18:50:21.861Z,26.60
2018-03-04T18:52:56.666Z,25.73
2018-03-04T18:55:26.844Z,25.70
2018-03-04T18:57:59.922Z,26.37
2018-03-04T19:00:29.132Z,26.20
2018-03-04T19:03:05.697Z,26.07
2018-03-04T19:08:11.032Z,36.15
2018-03-04T19:10:42.139Z,34.92
2018-03-04T19:13:11.376Z,35.77
2018-03-04T19:15:48.807Z,35.25
2018-03-04T19:18:18.136Z,34.33
2018-03-04T19:20:54.999Z,36.33
2018-03-04T19:23:24.317Z,31.97
2018-03-04T19:28:44.555Z,35.33
2018-03-04T19:31:13.789Z,31.60
2018-03-04T19:33:48.695Z,32.90
2018-03-04T19:36:17.965Z,28.53
2018-03-04T19:38:52.189Z,31.27
2018-03-04T19:41:21.470Z,29.37
2018-03-04T19:43:56.451Z,30.30
2018-03-04T19:46:26.566Z,28.03
2018-03-04T19:48:55.866Z,31.07
2018-03-04T19:51:33.876Z,76.00
2018-03-04T19:57:01.191Z,39.42
2018-03-04T19:59:30.801Z,33.13
2018-03-04T20:02:11.074Z,33.83
2018-03-04T20:04:40.289Z,31.73
2018-03-04T20:09:49.675Z,41.33
2018-03-04T20:12:19.230Z,35.03
2018-03-04T20:14:51.960Z,34.17
2018-03-04T20:17:21.158Z,32.77
2018-03-04T20:19:50.771Z,33.40
2018-03-04T20:22:20.089Z,41.83
2018-03-04T20:24:50.721Z,43.85
2018-03-04T20:27:20.726Z,38.10
2018-03-04T20:32:26.328Z,44.30
2018-03-04T20:35:00.506Z,34.57
2018-03-04T20:37:30.951Z,36.90
2018-03-04T20:40:01.847Z,36.60
2018-03-04T20:42:51.156Z,45.67
2018-03-04T20:45:20.503Z,50.53
2018-03-04T20:47:50.754Z,54.42
2018-03-04T20:50:24.067Z,43.20
2018-03-04T20:53:06.262Z,32.00
2018-03-04T20:55:35.443Z,36.15
2018-03-04T20:58:06.017Z,33.90
2018-03-04T21:00:35.559Z,34.97
2018-03-04T21:05:47.902Z,39.20
2018-03-04T21:08:17.151Z,33.43
2018-03-04T21:10:46.369Z,40.67
2018-03-04T21:13:15.507Z,37.47
2018-03-04T21:15:58.620Z,40.75
2018-03-04T21:18:30.166Z,41.25
2018-03-04T21:20:59.316Z,39.70
2018-03-04T21:23:28.494Z,43.40
2018-03-04T21:25:57.824Z,38.13
2018-03-04T21:28:27.160Z,44.88
2018-03-04T21:30:56.978Z,37.10
2018-03-04T21:33:26.178Z,40.83
2018-03-04T21:35:55.466Z,43.40
2018-03-04T21:38:24.944Z,39.20
2018-03-04T21:40:54.392Z,39.78
2018-03-04T21:43:23.601Z,40.53
2018-03-04T21:45:52.890Z,34.10
2018-03-04T21:48:22.200Z,38.08
2018-03-04T21:50:52.524Z,34.87
2018-03-04T21:53:21.823Z,41.28
2018-03-04T21:55:51.012Z,40.85
2018-03-04T21:58:20.175Z,36.07
2018-03-04T22:00:49.592Z,43.72
2018-03-04T22:03:18.872Z,37.03
2018-03-04T22:05:48.191Z,44.42
2018-03-04T22:08:17.385Z,45.50
2018-03-04T22:10:46.600Z,37.40
2018-03-04T22:13:15.992Z,40.75
2018-03-04T22:15:45.166Z,40.78
2018-03-04T22:18:14.330Z,37.13
2018-03-04T22:20:43.646Z,45.12
2018-03-04T22:23:13.183Z,49.65
2018-03-04T22:25:42.351Z,48.90
2018-03-04T22:28:11.766Z,42.73
2018-03-04T22:30:41.028Z,50.15
2018-03-04T22:33:10.200Z,40.90
2018-03-04T22:35:39.520Z,49.88
2018-03-04T22:38:08.709Z,50.85
2018-03-04T22:40:40.872Z,44.10
2018-03-04T22:43:10.069Z,51.63
2018-03-04T22:45:39.459Z,54.40
2018-03-04T22:48:08.650Z,44.17
2018-03-04T22:50:37.907Z,50.25
2018-03-04T22:53:07.393Z,54.80
2018-03-04T22:55:36.585Z,44.67
2018-03-04T22:58:05.960Z,58.25
2018-03-04T23:00:40.145Z,55.95
2018-03-04T23:05:50.172Z,54.50
2018-03-04T23:08:22.781Z,45.23
2018-03-04T23:10:55.227Z,56.43
2018-03-04T23:13:27.941Z,56.03
2018-03-04T23:16:02.472Z,44.60
2018-03-04T23:18:34.045Z,57.38
2018-03-04T23:21:06.802Z,48.63
2018-03-04T23:23:41.470Z,57.88
2018-03-04T23:26:13.547Z,58.92
2018-03-04T23:28:48.254Z,48.57
2018-03-04T23:31:21.869Z,58.60
2018-03-04T23:34:01.466Z,59.08
2018-03-04T23:36:32.445Z,42.50
2018-03-04T23:41:44.626Z,51.63
2018-03-04T23:44:19.440Z,43.80
2018-03-04T23:47:06.363Z,46.37
2018-03-04T23:49:40.478Z,43.27
2018-03-04T23:52:19.761Z,48.80
2018-03-04T23:54:57.668Z,54.77
2018-03-04T23:57:26.901Z,45.00
